KTEX

Telluride Regional Airport

Telluride, Colorado, USA
METAR KTEX 141255Z AUTO 14006KT 10SM CLR M06/M11 A3040 RMK AO2
Observed Flight Rules
Dec-14 @ 12:55 UTC (27 minutes ago) Visual Flight Rules
Wind Visibility Clouds
140° at 6 knots 10 miles
  • Clear skies
Temperatures Readings
Current -6°C / 21°F
Dewpoint -11°C / 12°F
Humidity 68%
Altimeter 30.4" Hg
Pressure 1029 hPa
Elevation 2769
METAR KTEX 141255Z AUTO 14006KT 10SM CLR M06/M11 A3040 RMK AO2
Observed Flight Rules
Dec-14 @ 12:55 UTC
(27 minutes ago)
VFR
Wind Visibility
140° at 6 knots 10 miles
Clouds
  • Clear skies
Temperature Dewpoint
-6°C / 21°F -11°C / 12°F
Humidity Altimeter Pressure
68% 30.4" Hg 1029 hPa